UAL429 KSAN-KLAX
Flight info
| Callsign | UAL429 |
|---|---|
| Flight time | 0h 22m |
| Altitude | 10000 |
| Route | KSAN CWARD2 SLI |
| Aircraft | B738/M-G/C |
Departure
| Time | 2026-04-20 18:50 |
|---|---|
| Airport | San Diego International Airport (KSAN) |
Arrival
| Time | 2026-04-20 19:12 |
|---|---|
| Airport | Los Angeles International Airport (KLAX) |
| Time | Latitude | Longitude | Altitude | Speed | Heading |
|---|---|---|---|---|---|
| 2026-04-20 18:31 | 32.73338 | -117.20183 | 22 ft | 0 kts | 84° |
| 2026-04-20 18:37 | 32.73337 | -117.20190 | 22 ft | 3 kts | 84° |
| 2026-04-20 18:37 | 32.73334 | -117.20219 | 22 ft | 3 kts | 84° |
| 2026-04-20 18:37 | 32.73331 | -117.20251 | 22 ft | 3 kts | 84° |
| 2026-04-20 18:38 | 32.73331 | -117.20258 | 22 ft | 0 kts | 75° |
| 2026-04-20 18:38 | 32.73331 | -117.20261 | 22 ft | 0 kts | 60° |
| 2026-04-20 18:38 | 32.73330 | -117.20263 | 22 ft | 0 kts | 50° |
| 2026-04-20 18:38 | 32.73327 | -117.20266 | 22 ft | 0 kts | 50° |
| 2026-04-20 18:39 | 32.73327 | -117.20267 | 22 ft | 0 kts | 50° |
| 2026-04-20 18:42 | 32.73326 | -117.20268 | 22 ft | 0 kts | 53° |
| 2026-04-20 18:42 | 32.73325 | -117.20270 | 22 ft | 0 kts | 62° |
| 2026-04-20 18:42 | 32.73334 | -117.20267 | 22 ft | 4 kts | 347° |
| 2026-04-20 18:42 | 32.73394 | -117.20274 | 22 ft | 12 kts | 5° |
| 2026-04-20 18:43 | 32.73497 | -117.20230 | 22 ft | 19 kts | 40° |
| 2026-04-20 18:43 | 32.73523 | -117.20058 | 22 ft | 24 kts | 104° |
| 2026-04-20 18:43 | 32.73471 | -117.19863 | 22 ft | 24 kts | 108° |
| 2026-04-20 18:43 | 32.73420 | -117.19682 | 24 ft | 21 kts | 105° |
| 2026-04-20 18:44 | 32.73387 | -117.19520 | 25 ft | 18 kts | 103° |
| 2026-04-20 18:44 | 32.73354 | -117.19373 | 25 ft | 18 kts | 106° |
| 2026-04-20 18:44 | 32.73312 | -117.19198 | 25 ft | 25 kts | 106° |
| 2026-04-20 18:44 | 32.73256 | -117.18976 | 24 ft | 29 kts | 107° |
| 2026-04-20 18:45 | 32.73213 | -117.18806 | 23 ft | 14 kts | 107° |
| 2026-04-20 18:45 | 32.73185 | -117.18677 | 23 ft | 17 kts | 103° |
| 2026-04-20 18:45 | 32.73147 | -117.18530 | 23 ft | 19 kts | 108° |
| 2026-04-20 18:45 | 32.73103 | -117.18361 | 23 ft | 21 kts | 106° |
| 2026-04-20 18:46 | 32.73060 | -117.18165 | 23 ft | 27 kts | 105° |
| 2026-04-20 18:46 | 32.73003 | -117.17931 | 24 ft | 28 kts | 107° |
| 2026-04-20 18:46 | 32.72971 | -117.17806 | 26 ft | 11 kts | 107° |
| 2026-04-20 18:46 | 32.72963 | -117.17775 | 26 ft | 0 kts | 107° |
| 2026-04-20 18:47 | 32.72961 | -117.17768 | 26 ft | 2 kts | 107° |
| 2026-04-20 18:47 | 32.72951 | -117.17729 | 27 ft | 8 kts | 107° |
| 2026-04-20 18:48 | 32.72950 | -117.17656 | 28 ft | 0 kts | 82° |
| 2026-04-20 18:48 | 32.72951 | -117.17650 | 28 ft | 3 kts | 82° |
| 2026-04-20 18:48 | 32.72975 | -117.17605 | 29 ft | 10 kts | 32° |
| 2026-04-20 18:48 | 32.73029 | -117.17621 | 29 ft | 9 kts | 296° |
| 2026-04-20 18:49 | 32.73033 | -117.17633 | 29 ft | 0 kts | 292° |
| 2026-04-20 18:49 | 32.73035 | -117.17638 | 29 ft | 1 kts | 292° |
| 2026-04-20 18:49 | 32.73045 | -117.17673 | 29 ft | 13 kts | 288° |
| 2026-04-20 18:49 | 32.73146 | -117.18126 | 23 ft | 96 kts | 286° |
| 2026-04-20 18:50 | 32.73407 | -117.19187 | 27 ft | 163 kts | 287° |
| 2026-04-20 18:50 | 32.73754 | -117.20601 | 451 ft | 186 kts | 285° |
| 2026-04-20 18:50 | 32.74188 | -117.22086 | 1266 ft | 196 kts | 296° |
| 2026-04-20 18:50 | 32.75017 | -117.23547 | 1816 ft | 218 kts | 309° |
| 2026-04-20 18:51 | 32.76141 | -117.25135 | 1485 ft | 268 kts | 310° |
| 2026-04-20 18:51 | 32.77224 | -117.26835 | 2672 ft | 255 kts | 303° |
| 2026-04-20 18:51 | 32.78192 | -117.28667 | 3349 ft | 263 kts | 303° |
| 2026-04-20 18:51 | 32.79220 | -117.30529 | 4093 ft | 269 kts | 304° |
| 2026-04-20 18:52 | 32.80331 | -117.32404 | 4834 ft | 273 kts | 307° |
| 2026-04-20 18:52 | 32.81512 | -117.34218 | 5559 ft | 278 kts | 307° |
| 2026-04-20 18:52 | 32.82725 | -117.36080 | 6292 ft | 281 kts | 307° |
| 2026-04-20 18:52 | 32.83933 | -117.37968 | 7032 ft | 284 kts | 306° |
| 2026-04-20 18:53 | 32.85152 | -117.39884 | 7749 ft | 287 kts | 306° |
| 2026-04-20 18:53 | 32.86388 | -117.41798 | 8455 ft | 290 kts | 306° |
| 2026-04-20 18:53 | 32.87656 | -117.43747 | 9134 ft | 294 kts | 306° |
| 2026-04-20 18:53 | 32.88925 | -117.45712 | 9755 ft | 299 kts | 306° |
| 2026-04-20 18:54 | 32.90231 | -117.47757 | 9951 ft | 304 kts | 305° |
| 2026-04-20 18:54 | 32.91521 | -117.49773 | 9970 ft | 298 kts | 306° |
| 2026-04-20 18:54 | 32.92807 | -117.51768 | 9970 ft | 298 kts | 306° |
| 2026-04-20 18:54 | 32.94103 | -117.53784 | 9967 ft | 299 kts | 306° |
| 2026-04-20 18:55 | 32.95393 | -117.55801 | 9962 ft | 299 kts | 306° |
| 2026-04-20 18:55 | 32.96663 | -117.57785 | 9967 ft | 299 kts | 306° |
| 2026-04-20 18:55 | 32.98008 | -117.59783 | 9960 ft | 301 kts | 314° |
| 2026-04-20 18:55 | 32.99811 | -117.61212 | 9969 ft | 317 kts | 336° |
| 2026-04-20 18:56 | 33.01955 | -117.62238 | 9959 ft | 342 kts | 337° |
| 2026-04-20 18:56 | 33.04275 | -117.63452 | 9958 ft | 363 kts | 334° |
| 2026-04-20 18:56 | 33.06617 | -117.64767 | 9957 ft | 362 kts | 334° |
| 2026-04-20 18:56 | 33.08939 | -117.66067 | 9964 ft | 360 kts | 334° |
| 2026-04-20 18:57 | 33.11265 | -117.67363 | 9966 ft | 361 kts | 334° |
| 2026-04-20 18:57 | 33.13595 | -117.68666 | 9942 ft | 360 kts | 333° |
| 2026-04-20 18:57 | 33.15897 | -117.69965 | 9963 ft | 360 kts | 333° |
| 2026-04-20 18:57 | 33.18198 | -117.71263 | 9955 ft | 361 kts | 333° |
| 2026-04-20 18:58 | 33.20536 | -117.72580 | 9947 ft | 361 kts | 333° |
| 2026-04-20 18:58 | 33.22852 | -117.73887 | 9959 ft | 362 kts | 333° |
| 2026-04-20 18:58 | 33.25161 | -117.75193 | 9968 ft | 361 kts | 333° |
| 2026-04-20 18:58 | 33.27474 | -117.76503 | 9961 ft | 361 kts | 333° |
| 2026-04-20 18:59 | 33.29800 | -117.77818 | 9954 ft | 361 kts | 333° |
| 2026-04-20 18:59 | 33.32114 | -117.79127 | 9963 ft | 362 kts | 333° |
| 2026-04-20 18:59 | 33.34445 | -117.80443 | 9955 ft | 363 kts | 333° |
| 2026-04-20 18:59 | 33.36790 | -117.81771 | 9966 ft | 363 kts | 333° |
| 2026-04-20 19:00 | 33.39111 | -117.83092 | 9961 ft | 362 kts | 333° |
| 2026-04-20 19:00 | 33.41429 | -117.84410 | 9956 ft | 361 kts | 333° |
| 2026-04-20 19:00 | 33.43736 | -117.85720 | 9962 ft | 359 kts | 333° |
| 2026-04-20 19:00 | 33.45999 | -117.87003 | 9961 ft | 343 kts | 333° |
| 2026-04-20 19:01 | 33.48157 | -117.88226 | 9946 ft | 325 kts | 333° |
| 2026-04-20 19:01 | 33.50171 | -117.89365 | 9957 ft | 308 kts | 333° |
| 2026-04-20 19:01 | 33.52118 | -117.90472 | 9959 ft | 300 kts | 333° |
| 2026-04-20 19:01 | 33.54055 | -117.91580 | 9960 ft | 304 kts | 333° |
| 2026-04-20 19:02 | 33.56020 | -117.92720 | 9957 ft | 305 kts | 332° |
| 2026-04-20 19:02 | 33.57951 | -117.93837 | 9820 ft | 306 kts | 333° |
| 2026-04-20 19:02 | 33.59922 | -117.94956 | 9500 ft | 306 kts | 333° |
| 2026-04-20 19:02 | 33.61885 | -117.96056 | 9132 ft | 303 kts | 333° |
| 2026-04-20 19:03 | 33.63825 | -117.97151 | 8763 ft | 301 kts | 333° |
| 2026-04-20 19:03 | 33.65747 | -117.98245 | 8391 ft | 298 kts | 334° |
| 2026-04-20 19:03 | 33.67643 | -117.99321 | 8020 ft | 295 kts | 334° |
| 2026-04-20 19:03 | 33.69523 | -118.00393 | 7649 ft | 293 kts | 333° |
| 2026-04-20 19:04 | 33.71393 | -118.01483 | 7315 ft | 289 kts | 333° |
| 2026-04-20 19:04 | 33.73232 | -118.02554 | 7024 ft | 282 kts | 334° |
| 2026-04-20 19:04 | 33.75009 | -118.03574 | 6749 ft | 271 kts | 334° |
| 2026-04-20 19:04 | 33.76699 | -118.04530 | 6481 ft | 261 kts | 334° |
| 2026-04-20 19:05 | 33.78369 | -118.05474 | 6206 ft | 252 kts | 336° |
| 2026-04-20 19:05 | 33.79985 | -118.06270 | 5939 ft | 244 kts | 341° |
| 2026-04-20 19:05 | 33.81646 | -118.06808 | 5657 ft | 238 kts | 347° |
| 2026-04-20 19:05 | 33.83284 | -118.07251 | 5403 ft | 232 kts | 347° |
| 2026-04-20 19:06 | 33.84857 | -118.07689 | 5157 ft | 229 kts | 347° |
| 2026-04-20 19:06 | 33.86463 | -118.08131 | 4873 ft | 231 kts | 348° |
| 2026-04-20 19:06 | 33.88063 | -118.08575 | 4587 ft | 230 kts | 347° |
| 2026-04-20 19:06 | 33.89643 | -118.09019 | 4308 ft | 229 kts | 347° |
| 2026-04-20 19:07 | 33.91204 | -118.09454 | 4020 ft | 220 kts | 347° |
| 2026-04-20 19:07 | 33.92672 | -118.09975 | 3725 ft | 215 kts | 333° |
| 2026-04-20 19:07 | 33.93823 | -118.11144 | 3588 ft | 210 kts | 311° |
| 2026-04-20 19:07 | 33.94819 | -118.12489 | 3556 ft | 213 kts | 312° |
| 2026-04-20 19:08 | 33.95766 | -118.13890 | 3556 ft | 214 kts | 298° |
| 2026-04-20 19:08 | 33.95862 | -118.17444 | 3471 ft | 216 kts | 260° |
| 2026-04-20 19:08 | 33.95667 | -118.19234 | 3192 ft | 207 kts | 263° |
| 2026-04-20 19:09 | 33.95486 | -118.20948 | 2918 ft | 199 kts | 263° |
| 2026-04-20 19:09 | 33.95320 | -118.22610 | 2652 ft | 190 kts | 263° |
| 2026-04-20 19:09 | 33.95161 | -118.24173 | 2392 ft | 178 kts | 263° |
| 2026-04-20 19:09 | 33.95015 | -118.25649 | 2174 ft | 175 kts | 263° |
| 2026-04-20 19:10 | 33.94864 | -118.27143 | 1926 ft | 176 kts | 262° |
| 2026-04-20 19:10 | 33.94720 | -118.28574 | 1697 ft | 158 kts | 262° |
| 2026-04-20 19:10 | 33.94586 | -118.29882 | 1482 ft | 154 kts | 262° |
| 2026-04-20 19:10 | 33.94457 | -118.31184 | 1264 ft | 154 kts | 263° |
| 2026-04-20 19:11 | 33.94318 | -118.32505 | 1073 ft | 156 kts | 263° |
| 2026-04-20 19:11 | 33.94189 | -118.33829 | 847 ft | 156 kts | 263° |
| 2026-04-20 19:11 | 33.94053 | -118.35126 | 630 ft | 151 kts | 263° |
| 2026-04-20 19:11 | 33.93932 | -118.36389 | 428 ft | 147 kts | 263° |
| 2026-04-20 19:12 | 33.93803 | -118.37627 | 268 ft | 146 kts | 263° |
| 2026-04-20 19:12 | 33.93668 | -118.38881 | 108 ft | 142 kts | 262° |
| 2026-04-20 19:12 | 33.93624 | -118.39846 | 115 ft | 79 kts | 289° |
| 2026-04-20 19:12 | 33.93650 | -118.40241 | 121 ft | 11 kts | 271° |
| 2026-04-20 19:13 | 33.93652 | -118.40282 | 121 ft | 5 kts | 271° |
| 2026-04-20 19:13 | 33.93654 | -118.40327 | 121 ft | 4 kts | 279° |
| 2026-04-20 19:13 | 33.93664 | -118.40368 | 121 ft | 6 kts | 291° |
| 2026-04-20 19:13 | 33.93716 | -118.40414 | 122 ft | 11 kts | 339° |
| 2026-04-20 19:14 | 33.93796 | -118.40440 | 123 ft | 11 kts | 352° |
| 2026-04-20 19:14 | 33.93826 | -118.40430 | 123 ft | 0 kts | 39° |
| 2026-04-20 19:14 | 33.93827 | -118.40427 | 123 ft | 2 kts | 58° |
| 2026-04-20 19:14 | 33.93846 | -118.40360 | 121 ft | 14 kts | 82° |
| 2026-04-20 19:15 | 33.93903 | -118.40301 | 121 ft | 10 kts | 15° |
| 2026-04-20 19:15 | 33.93936 | -118.40233 | 121 ft | 8 kts | 80° |
| 2026-04-20 19:15 | 33.93949 | -118.40148 | 120 ft | 13 kts | 80° |
| 2026-04-20 19:15 | 33.94017 | -118.40070 | 119 ft | 16 kts | 4° |
| 2026-04-20 19:16 | 33.94062 | -118.40070 | 118 ft | 1 kts | 10° |
| 2026-04-20 19:16 | 33.94101 | -118.40074 | 118 ft | 10 kts | 351° |
| 2026-04-20 19:16 | 33.94122 | -118.40026 | 118 ft | 0 kts | 101° |